Time;durP1;ratioP1;P1;durP2;ratioP2;P2;SDS_P1;SDS_P2;PMS_P1;PMS_P2;Temp;Humidity;BMP_temperature;BMP_pressure;BME280_temperature;BME280_humidity;BME280_pressure;Samples;Min_cycle;Max_cycle;Signal;HPM_P1;HPM_P2
2022/05/05 00:01:49;;;;;;;10.60;8.88;;;12.90;99.90;;;13.22;67.41;97773.22;5007699;28;20049;-54
2022/05/05 00:04:22;;;;;;;13.00;8.77;;;12.80;99.90;;;13.18;67.75;97764.75;5006323;28;20056;-53
2022/05/05 00:06:50;;;;;;;10.18;8.77;;;12.80;99.90;;;13.17;67.69;97764.91;5007135;28;20058;-51
2022/05/05 00:09:18;;;;;;;10.68;9.23;;;12.80;99.90;;;13.17;67.92;97764.91;5007791;28;20046;-53
2022/05/05 00:14:33;;;;;;;10.80;8.70;;;12.80;99.90;;;13.16;67.66;97760.56;5006834;28;20050;-48
2022/05/05 00:17:03;;;;;;;11.70;9.07;;;12.80;99.90;;;13.20;68.01;97761.88;5007883;28;20063;-51
2022/05/05 00:19:34;;;;;;;11.07;9.52;;;12.90;99.90;;;13.23;67.78;97764.22;5006739;28;20053;-51
2022/05/05 00:22:04;;;;;;;11.65;9.30;;;12.90;99.90;;;13.26;67.70;97771.03;5006565;28;20061;-53
2022/05/05 00:24:33;;;;;;;11.20;9.98;;;13.00;99.90;;;13.26;67.91;97758.53;5008496;28;20068;-50
2022/05/05 00:27:01;;;;;;;10.55;9.45;;;12.90;99.90;;;13.26;67.78;97761.19;5008215;28;20058;-54
2022/05/05 00:29:28;;;;;;;11.73;9.30;;;13.00;99.90;;;13.24;67.86;97762.38;5005604;28;20064;-53
2022/05/05 00:31:56;;;;;;;10.00;8.98;;;12.80;99.90;;;13.20;67.89;97762.72;5006782;28;20061;-52
2022/05/05 00:34:24;;;;;;;11.65;9.25;;;12.80;99.90;;;13.19;67.83;97760.22;5007494;28;20053;-49
2022/05/05 00:36:52;;;;;;;12.07;9.13;;;12.70;99.90;;;13.19;68.07;97761.03;5008069;28;20053;-49
2022/05/05 00:39:20;;;;;;;10.27;8.98;;;12.80;99.90;;;13.19;68.21;97752.22;5006703;28;20058;-50
2022/05/05 00:41:48;;;;;;;10.40;9.38;;;12.80;99.90;;;13.19;68.01;97762.91;5006766;28;20052;-53
2022/05/05 00:44:16;;;;;;;12.57;10.27;;;12.80;99.90;;;13.17;68.11;97755.06;5007152;28;20225;-49
2022/05/05 00:46:51;;;;;;;10.88;8.95;;;12.80;99.90;;;13.13;67.93;97764.44;5006060;28;20351;-50
2022/05/05 00:49:21;;;;;;;11.00;9.10;;;12.70;99.90;;;13.12;68.17;97754.72;5007556;28;20244;-49
2022/05/05 00:51:49;;;;;;;11.15;9.32;;;12.70;99.90;;;13.12;68.07;97761.91;4989862;28;20076;-54
2022/05/05 00:54:16;;;;;;;10.88;8.95;;;12.70;99.90;;;13.11;68.09;97757.59;5006503;28;20057;-52
2022/05/05 00:56:46;;;;;;;12.43;9.23;;;12.70;99.90;;;13.10;67.96;97766.63;5008129;28;20076;-51
2022/05/05 00:59:14;;;;;;;10.45;8.80;;;12.70;99.90;;;13.10;68.04;97761.25;5007390;28;20069;-50
2022/05/05 01:01:42;;;;;;;13.38;10.13;;;12.70;99.90;;;13.11;68.00;97768.28;5005445;28;20052;-51
2022/05/05 01:04:10;;;;;;;14.90;9.50;;;12.70;99.90;;;13.10;67.93;97759.41;5007295;28;20236;-51
2022/05/05 01:06:38;;;;;;;11.65;8.98;;;12.70;99.90;;;13.10;68.13;97756.75;5006715;28;20054;-52
2022/05/05 01:09:07;;;;;;;13.65;10.05;;;12.70;99.90;;;13.10;68.24;97759.41;5006646;28;20061;-53
2022/05/05 01:11:35;;;;;;;12.25;9.60;;;12.70;99.90;;;13.13;68.01;97763.59;5007047;28;20240;-54
2022/05/05 01:14:03;;;;;;;10.40;9.30;;;12.80;99.90;;;13.15;67.89;97756.25;5006743;28;20245;-50
2022/05/05 01:16:31;;;;;;;10.18;9.02;;;12.80;99.90;;;13.16;67.97;97758.75;5006413;28;20056;-54
2022/05/05 01:18:59;;;;;;;10.48;9.38;;;12.80;99.90;;;13.15;67.65;97759.75;5006330;28;20046;-52
2022/05/05 01:21:27;;;;;;;11.60;9.48;;;12.80;99.90;;;13.14;67.81;97759.91;5006979;28;20260;-53
2022/05/05 01:23:54;;;;;;;11.98;9.88;;;12.80;99.90;;;13.09;67.86;97757.75;5006817;28;20050;-50
2022/05/05 01:29:10;;;;;;;9.88;8.27;;;12.70;99.90;;;13.09;67.78;97771.13;5007092;28;20057;-53
2022/05/05 01:31:39;;;;;;;10.43;9.32;;;12.70;99.90;;;13.10;67.70;97769.28;5004918;28;20062;-50
2022/05/05 01:34:07;;;;;;;11.65;9.63;;;12.70;99.90;;;13.12;67.54;97773.44;5005391;28;20061;-52
2022/05/05 01:36:35;;;;;;;10.00;8.50;;;12.80;99.90;;;13.14;67.65;97768.78;5007222;28;20160;-51
2022/05/05 01:39:03;;;;;;;10.13;8.75;;;12.80;99.90;;;13.18;67.61;97772.78;5006687;28;20290;-54
2022/05/05 01:41:31;;;;;;;9.98;8.10;;;12.90;99.90;;;13.17;67.54;97779.09;5007497;28;20050;-49
2022/05/05 01:44:00;;;;;;;11.30;8.55;;;12.90;99.90;;;13.20;67.33;97773.44;5007497;28;20348;-53
2022/05/05 01:46:27;;;;;;;14.20;9.68;;;12.90;99.90;;;13.22;67.31;97777.75;5006524;28;20365;-50
2022/05/05 01:48:55;;;;;;;9.50;8.50;;;12.90;99.90;;;13.23;67.13;97779.44;5006395;28;20234;-54
2022/05/05 01:51:23;;;;;;;10.68;9.57;;;12.90;99.90;;;13.23;67.16;97782.09;5007295;28;20050;-51
2022/05/05 01:53:51;;;;;;;11.13;8.95;;;12.90;99.90;;;13.18;66.91;97783.47;5005486;28;20050;-53
2022/05/05 01:56:20;;;;;;;10.63;9.52;;;12.80;99.90;;;13.14;67.16;97784.81;5007433;28;20065;-54
2022/05/05 01:58:48;;;;;;;11.40;8.43;;;12.70;99.90;;;13.10;67.05;97778.13;5005977;28;20058;-52
2022/05/05 02:01:16;;;;;;;12.32;8.85;;;12.70;99.90;;;13.10;67.03;97778.13;5007161;28;20211;-54
2022/05/05 02:03:44;;;;;;;10.02;8.07;;;12.70;99.90;;;13.09;66.83;97779.16;5008181;28;20283;-53
2022/05/05 02:06:15;;;;;;;10.73;8.23;;;12.70;99.90;;;13.09;66.81;97772.97;5011308;28;20068;-52
2022/05/05 02:08:43;;;;;;;9.02;8.15;;;12.80;99.90;;;12.98;66.99;97782.19;5009521;28;20054;-49
2022/05/05 02:11:11;;;;;;;11.15;8.82;;;12.60;99.90;;;12.96;67.05;97778.88;5009036;28;20064;-54
2022/05/05 02:13:39;;;;;;;10.80;9.00;;;12.60;99.90;;;12.90;67.10;97783.06;5010566;28;20289;-54
2022/05/05 02:16:07;;;;;;;11.70;9.45;;;12.50;99.90;;;12.91;67.23;97784.75;5009838;28;20054;-50
2022/05/05 02:18:35;;;;;;;12.85;9.68;;;12.50;99.90;;;12.85;67.06;97774.72;5009764;28;20064;-52
2022/05/05 02:21:03;;;;;;;16.25;9.27;;;12.40;99.90;;;12.81;67.21;97781.41;5010267;28;20057;-53
2022/05/05 02:23:30;;;;;;;11.90;9.70;;;12.40;99.90;;;12.74;67.53;97775.13;5009659;28;20056;-52
2022/05/05 02:25:58;;;;;;;10.43;9.20;;;12.30;99.90;;;12.74;67.38;97780.47;5009619;28;20052;-54
2022/05/05 02:28:26;;;;;;;11.40;9.32;;;12.30;99.90;;;12.71;67.71;97778.13;5009259;28;20046;-52
2022/05/05 02:30:54;;;;;;;11.05;8.70;;;12.30;99.90;;;12.73;67.67;97774.25;5008991;28;20084;-54
2022/05/05 02:33:22;;;;;;;10.43;9.32;;;12.40;99.90;;;12.71;67.69;97775.44;5009099;28;20370;-51
2022/05/05 02:38:42;;;;;;;10.90;8.95;;;12.30;99.90;;;12.71;67.48;97772.78;5010272;28;20056;-52
2022/05/05 02:38:43;;;;;;;10.90;9.68;;;12.30;99.90;;;12.74;67.46;97773.28;5009407;28;20064;-51
2022/05/05 02:41:11;;;;;;;10.00;8.50;;;12.40;99.90;;;12.79;67.42;97780.75;5008785;28;20077;-52
2022/05/05 02:43:39;;;;;;;10.40;8.80;;;12.50;99.90;;;12.72;67.55;97777.13;5009930;28;20344;-51
2022/05/05 02:46:07;;;;;;;12.27;9.93;;;12.40;99.90;;;12.63;67.68;97772.81;5009350;28;20042;-52
2022/05/05 02:48:36;;;;;;;10.05;8.85;;;12.20;99.90;;;12.59;67.69;97773.13;5009105;28;20048;-55
2022/05/05 02:51:04;;;;;;;10.10;8.85;;;12.20;99.90;;;12.57;67.78;97774.31;5009455;28;20053;-49
2022/05/05 02:56:18;;;;;;;10.18;9.05;;;12.10;99.90;;;12.42;68.22;97774.16;5007979;28;20080;-50
2022/05/05 02:58:46;;;;;;;11.25;9.45;;;12.00;99.90;;;12.30;68.50;97771.03;5007109;28;20053;-53
2022/05/05 03:01:14;;;;;;;9.93;8.77;;;11.80;99.90;;;12.37;68.35;97768.53;5008902;28;20052;-54
2022/05/05 03:03:42;;;;;;;10.90;9.45;;;12.00;99.90;;;12.47;68.14;97763.81;5009026;28;20056;-53
2022/05/05 03:06:10;;;;;;;11.43;9.02;;;12.20;99.90;;;12.58;68.14;97767.94;5008655;28;20076;-51
2022/05/05 03:08:38;;;;;;;11.82;9.35;;;12.30;99.90;;;12.57;67.95;97764.47;5008035;28;20079;-52
2022/05/05 03:11:06;;;;;;;11.07;9.35;;;12.30;99.90;;;12.49;68.16;97771.66;5008538;28;20069;-50
2022/05/05 03:13:34;;;;;;;11.10;9.55;;;12.10;99.90;;;12.39;68.22;97763.84;5008190;28;20132;-55
2022/05/05 03:16:03;;;;;;;9.57;8.50;;;12.00;99.90;;;12.39;68.37;97763.84;5008940;28;20059;-52
2022/05/05 03:18:31;;;;;;;9.95;8.20;;;12.00;99.90;;;12.49;68.43;97775.16;5007896;28;20050;-54
2022/05/05 03:20:59;;;;;;;9.85;8.85;;;12.20;99.90;;;12.57;68.16;97769.81;5008932;28;20053;-54
2022/05/05 03:23:27;;;;;;;9.02;7.80;;;12.30;99.90;;;12.65;68.35;97774.28;5008922;28;20056;-50
2022/05/05 03:25:55;;;;;;;11.32;8.95;;;12.40;99.90;;;12.69;68.10;97770.28;5009740;28;20050;-51
2022/05/05 03:28:23;;;;;;;9.57;8.30;;;12.50;99.90;;;12.76;67.84;97773.09;5008899;28;20321;-52
2022/05/05 03:30:51;;;;;;;10.20;9.20;;;12.50;99.90;;;12.81;68.02;97776.06;5008598;28;20054;-54
2022/05/05 03:33:19;;;;;;;9.88;8.80;;;12.60;99.90;;;12.84;67.59;97781.09;5007866;28;20060;-50
2022/05/05 03:35:47;;;;;;;10.07;8.10;;;12.60;99.90;;;12.88;67.59;97782.41;5006425;28;20056;-54
2022/05/05 03:38:15;;;;;;;9.27;8.13;;;12.60;99.90;;;12.89;67.52;97783.22;5008315;28;20056;-51
2022/05/05 03:40:45;;;;;;;10.07;8.70;;;12.60;99.90;;;12.92;67.60;97785.56;5007418;28;20050;-52
2022/05/05 03:43:12;;;;;;;9.75;8.07;;;12.70;99.90;;;12.94;67.39;97779.03;5008152;28;20046;-54
2022/05/05 03:45:40;;;;;;;9.20;8.23;;;12.70;99.90;;;12.96;67.46;97782.38;5009840;28;20058;-54
2022/05/05 03:48:09;;;;;;;9.70;8.70;;;12.70;99.90;;;12.88;67.45;97779.72;5004656;28;20057;-53
2022/05/05 03:50:37;;;;;;;9.60;8.55;;;12.50;99.90;;;12.79;67.21;97784.28;5007970;28;20349;-50
2022/05/05 03:53:05;;;;;;;10.40;8.77;;;12.40;99.90;;;12.76;67.59;97779.28;5007386;28;20067;-51
2022/05/05 03:55:33;;;;;;;10.38;9.25;;;12.40;99.90;;;12.73;67.55;97784.13;5007980;28;20173;-50
2022/05/05 03:58:01;;;;;;;10.93;9.40;;;12.30;99.90;;;12.68;67.74;97784.66;5006938;28;20061;-53
2022/05/05 04:00:29;;;;;;;10.18;8.77;;;12.20;99.90;;;12.67;67.55;97782.97;5006563;28;20050;-52
2022/05/05 04:05:43;;;;;;;11.32;9.75;;;12.30;99.90;;;12.73;67.95;97792.13;5008625;28;20076;-52
2022/05/05 04:08:11;;;;;;;10.20;8.73;;;12.40;99.90;;;12.76;67.90;97789.97;5007916;28;20045;-53
2022/05/05 04:10:39;;;;;;;10.38;8.73;;;12.50;99.90;;;12.81;67.77;97800.13;5007289;28;20079;-50
2022/05/05 04:13:07;;;;;;;10.90;8.98;;;12.60;99.90;;;12.84;67.78;97805.13;5007960;28;20064;-53
2022/05/05 04:15:35;;;;;;;10.40;9.32;;;12.60;99.90;;;12.85;67.84;97808.63;5007607;28;20058;-54
2022/05/05 04:18:04;;;;;;;11.35;8.85;;;12.60;99.90;;;12.84;67.75;97810.47;5007729;28;20046;-50
2022/05/05 04:20:32;;;;;;;12.02;9.55;;;12.60;99.90;;;12.84;67.55;97817.66;5007061;28;20077;-53
2022/05/05 04:23:00;;;;;;;13.35;9.88;;;12.50;99.90;;;12.82;67.59;97801.78;5007710;28;20061;-51
2022/05/05 04:25:48;;;;;;;10.25;8.80;;;12.50;99.90;;;12.80;67.49;97809.16;5007248;28;20065;-54
2022/05/05 04:28:16;;;;;;;11.07;8.90;;;12.50;99.90;;;12.78;67.47;97819.19;5005287;28;20264;-55
2022/05/05 04:30:44;;;;;;;11.18;9.63;;;12.50;99.90;;;12.76;67.72;97810.50;5006498;28;20356;-50
2022/05/05 04:33:13;;;;;;;13.18;10.85;;;12.50;99.90;;;12.75;67.57;97822.19;5005873;28;20046;-43
2022/05/05 04:35:41;;;;;;;16.67;12.07;;;12.40;99.90;;;12.69;67.31;97821.03;5006985;28;20059;-47
2022/05/05 04:38:09;;;;;;;13.48;9.95;;;12.30;99.90;;;12.70;67.51;97830.72;5008104;28;20247;-45
2022/05/05 04:40:36;;;;;;;10.80;9.40;;;12.30;99.90;;;12.69;67.71;97837.03;5006837;28;20060;-43
2022/05/05 04:43:04;;;;;;;13.48;10.00;;;12.30;99.90;;;12.68;67.52;97831.88;5006837;28;20046;-43
2022/05/05 04:45:33;;;;;;;12.60;10.07;;;12.30;99.90;;;12.68;67.61;97840.75;5006247;28;20351;-44
2022/05/05 04:48:01;;;;;;;11.57;9.60;;;12.40;99.90;;;12.68;67.69;97835.41;5007487;28;20046;-44
2022/05/05 04:50:29;;;;;;;11.18;9.55;;;12.40;99.90;;;12.68;67.78;97831.88;5006380;28;20049;-45
2022/05/05 04:52:57;;;;;;;14.35;10.82;;;12.40;99.90;;;12.69;67.84;97836.22;5007117;28;20054;-43
2022/05/05 04:55:25;;;;;;;15.82;11.25;;;12.40;99.90;;;12.70;67.84;97828.03;5007918;28;20053;-44
2022/05/05 04:57:52;;;;;;;12.00;9.88;;;12.40;99.90;;;12.71;67.96;97831.53;5005296;28;20046;-44
2022/05/05 05:00:21;;;;;;;12.82;9.18;;;12.40;99.90;;;12.72;68.17;97826.03;5006315;28;20062;-44
2022/05/05 05:02:49;;;;;;;11.77;9.63;;;12.40;99.90;;;12.73;68.24;97832.19;5006503;28;20049;-43
2022/05/05 05:05:17;;;;;;;10.40;9.27;;;12.40;99.90;;;12.72;68.02;97831.38;5007524;28;20046;-44
2022/05/05 05:07:45;;;;;;;10.73;9.63;;;12.40;99.90;;;12.75;68.27;97833.69;5007311;28;20044;-44
2022/05/05 05:10:13;;;;;;;10.48;9.05;;;12.50;99.90;;;12.80;68.30;97838.53;5005819;28;20034;-43
2022/05/05 05:12:41;;;;;;;10.55;9.32;;;12.60;99.90;;;12.86;68.24;97842.38;5007790;28;20245;-44
2022/05/05 05:15:09;;;;;;;14.13;9.30;;;12.70;99.90;;;12.91;68.28;97848.88;5007360;28;20058;-44
2022/05/05 05:17:37;;;;;;;11.30;8.93;;;12.70;99.90;;;12.89;67.91;97847.34;5006136;28;20049;-47
2022/05/05 05:20:06;;;;;;;9.55;8.40;;;12.60;99.90;;;12.79;68.05;97845.72;5007047;28;20244;-47
2022/05/05 05:22:34;;;;;;;8.77;7.93;;;12.40;99.90;;;12.66;68.42;97856.09;5006219;28;20355;-45
2022/05/05 05:25:03;;;;;;;10.05;8.95;;;12.20;99.90;;;12.67;68.42;97852.41;5006421;28;20056;-44
2022/05/05 05:27:30;;;;;;;10.05;8.55;;;12.30;99.90;;;12.56;68.57;97856.28;5006697;28;20057;-45
2022/05/05 05:29:58;;;;;;;9.18;8.18;;;12.20;99.90;;;12.56;68.75;97856.28;5006788;28;20053;-44
2022/05/05 05:32:26;;;;;;;10.80;9.15;;;12.20;99.90;;;12.66;68.43;97858.78;5006963;28;20076;-47
2022/05/05 05:34:54;;;;;;;10.93;9.52;;;12.40;99.90;;;12.75;68.68;97868.41;5006323;28;20054;-45
2022/05/05 05:37:22;;;;;;;10.75;9.43;;;12.50;99.90;;;12.81;68.58;97864.22;5007388;28;20252;-45
2022/05/05 05:39:50;;;;;;;9.27;8.27;;;12.60;99.90;;;12.87;68.28;97870.75;5008180;28;20252;-47
2022/05/05 05:42:18;;;;;;;10.55;9.35;;;12.60;99.90;;;12.90;68.16;97865.91;5009897;28;20125;-44
2022/05/05 05:44:46;;;;;;;10.65;8.98;;;12.70;99.90;;;12.96;68.44;97872.41;5010129;28;20062;-44
2022/05/05 05:47:13;;;;;;;10.05;9.00;;;12.80;99.90;;;13.02;68.46;97862.88;5010774;28;20049;-44
2022/05/05 05:49:42;;;;;;;10.20;8.63;;;12.80;99.90;;;13.01;68.60;97862.03;5009737;28;20052;-46
2022/05/05 05:52:10;;;;;;;11.63;8.82;;;12.80;99.90;;;13.06;68.26;97867.69;5009442;28;20049;-45
2022/05/05 05:54:38;;;;;;;11.18;8.43;;;12.90;99.90;;;12.96;68.12;97865.22;5009627;28;20042;-45
2022/05/05 05:57:06;;;;;;;14.43;10.27;;;12.80;99.90;;;12.86;68.15;97867.25;5010311;28;20353;-47
2022/05/05 05:59:33;;;;;;;15.20;10.00;;;12.60;99.90;;;12.72;68.72;97867.94;5009386;28;20049;-46
2022/05/05 06:04:49;;;;;;;10.98;8.20;;;12.40;99.90;;;12.82;68.87;97865.09;5008857;28;20057;-47
2022/05/05 06:07:17;;;;;;;9.02;7.68;;;12.60;99.90;;;12.82;68.83;97871.25;5009540;28;20045;-46
2022/05/05 06:09:45;;;;;;;11.00;8.38;;;12.60;99.90;;;12.83;69.12;97872.09;5010176;28;20058;-44
2022/05/05 06:12:12;;;;;;;8.70;7.80;;;12.60;99.90;;;12.84;68.79;97885.28;5010369;28;20058;-44
2022/05/05 06:14:40;;;;;;;8.63;7.65;;;12.60;99.90;;;12.87;68.59;97887.63;5010167;28;20062;-50
2022/05/05 06:17:08;;;;;;;10.65;8.00;;;12.60;99.90;;;12.75;68.87;97886.28;5009591;28;20249;-46
2022/05/05 06:19:36;;;;;;;8.93;8.02;;;12.50;99.90;;;12.69;69.09;97890.47;5010347;28;20072;-44
2022/05/05 06:22:04;;;;;;;9.63;8.50;;;12.40;99.90;;;12.73;69.49;97893.63;5010390;28;20049;-45
2022/05/05 06:24:32;;;;;;;11.38;8.80;;;12.50;99.90;;;12.72;69.37;97890.16;5008196;28;20084;-43
2022/05/05 06:27:00;;;;;;;10.98;8.82;;;12.50;99.90;;;12.63;69.71;97893.81;5008344;28;20053;-44
2022/05/05 06:29:30;;;;;;;10.00;8.32;;;12.40;99.90;;;12.60;69.81;97900.34;5009296;28;20058;-48
2022/05/05 06:31:58;;;;;;;13.10;9.60;;;12.40;99.90;;;12.49;70.45;97905.19;5008566;28;20064;-49
2022/05/05 06:34:26;;;;;;;10.35;8.80;;;12.20;99.90;;;12.60;70.21;97907.50;5009395;28;20061;-44
2022/05/05 06:36:54;;;;;;;11.35;9.10;;;12.30;99.90;;;12.61;70.37;97911.84;5010499;28;20062;-45
2022/05/05 06:39:22;;;;;;;12.00;9.63;;;12.40;99.90;;;12.67;70.13;97910.34;5008913;28;20056;-46
2022/05/05 06:41:49;;;;;;;11.00;9.68;;;12.50;99.90;;;12.71;70.28;97907.16;5010124;28;20253;-45
2022/05/05 06:44:17;;;;;;;13.25;10.75;;;12.50;99.90;;;12.78;70.26;97902.00;5008746;28;20056;-48
2022/05/05 06:46:46;;;;;;;10.95;9.30;;;12.60;99.90;;;12.82;70.19;97913.19;5008428;28;20252;-45
2022/05/05 06:49:14;;;;;;;12.38;10.18;;;12.70;99.90;;;12.78;70.32;97912.69;5008385;28;20062;-45
2022/05/05 06:51:42;;;;;;;12.50;10.30;;;12.60;99.90;;;12.70;70.59;97918.88;5008489;28;20054;-45
2022/05/05 06:54:10;;;;;;;11.35;9.98;;;12.50;99.90;;;12.75;70.28;97923.69;5008692;28;20060;-45
2022/05/05 06:56:38;;;;;;;11.93;10.20;;;12.50;99.90;;;12.68;70.65;97920.00;5009522;28;20068;-47
2022/05/05 06:59:06;;;;;;;10.13;9.07;;;12.50;99.90;;;12.67;70.72;97921.84;5008191;28;20432;-43
2022/05/05 07:01:53;;;;;;;11.27;9.43;;;12.50;99.90;;;12.75;70.53;97924.50;5007714;28;20079;-45
2022/05/05 07:07:17;;;;;;;12.13;9.52;;;12.60;99.90;;;12.70;71.33;97926.88;5008968;28;20050;-47
2022/05/05 07:12:33;;;;;;;11.02;9.27;;;12.60;99.90;;;12.82;71.10;97932.72;5008376;28;20053;-45
2022/05/05 07:15:01;;;;;;;10.45;8.45;;;12.70;99.90;;;12.82;71.50;97932.72;5008302;28;20064;-45
2022/05/05 07:17:29;;;;;;;11.95;9.90;;;12.70;99.90;;;12.92;71.01;97927.19;5008201;28;20060;-45
2022/05/05 07:19:58;;;;;;;11.73;8.57;;;12.80;99.90;;;12.92;71.17;97932.53;5009065;28;20225;-47
2022/05/05 07:22:26;;;;;;;11.50;8.77;;;12.70;99.90;;;12.92;71.18;97928.00;5007199;28;20053;-45
2022/05/05 07:24:53;;;;;;;11.07;8.77;;;12.80;99.90;;;12.98;71.26;97940.69;5007341;28;20053;-46
2022/05/05 07:27:22;;;;;;;12.13;9.35;;;12.80;99.90;;;12.93;71.41;97937.72;5009412;28;20048;-49
2022/05/05 07:29:50;;;;;;;13.93;10.13;;;12.80;99.90;;;12.97;71.23;97939.03;5009549;28;20058;-44
2022/05/05 07:32:17;;;;;;;11.27;9.57;;;12.80;99.90;;;12.97;71.66;97940.88;5008185;28;20275;-43
2022/05/05 07:34:45;;;;;;;12.95;9.05;;;12.80;99.90;;;12.82;71.62;97945.25;5008297;28;20367;-44
2022/05/05 07:37:13;;;;;;;11.48;9.10;;;12.70;99.90;;;12.84;72.15;97945.91;5008909;28;20045;-47
2022/05/05 07:39:41;;;;;;;10.70;9.60;;;12.70;99.90;;;13.04;72.05;97947.19;5008174;28;20438;-45
2022/05/05 07:42:09;;;;;;;12.40;10.40;;;13.00;99.90;;;13.03;71.72;97947.38;5007727;28;20054;-45
2022/05/05 07:44:37;;;;;;;12.07;9.93;;;13.00;99.90;;;13.13;71.97;97940.84;5007622;28;20235;-45
2022/05/05 07:47:05;;;;;;;11.65;9.45;;;13.20;99.90;;;13.17;71.65;97952.03;5007671;28;20052;-47
2022/05/05 07:49:33;;;;;;;11.48;9.80;;;13.10;99.90;;;13.12;71.64;97949.03;5007471;28;20045;-48
2022/05/05 07:52:01;;;;;;;12.68;10.65;;;13.10;99.90;;;13.27;71.94;97958.03;5023102;28;20041;-45
2022/05/05 07:54:36;;;;;;;12.77;9.82;;;13.20;99.90;;;13.38;71.77;97948.84;5034655;28;20278;-46
2022/05/05 07:57:08;;;;;;;14.43;10.82;;;13.40;99.90;;;13.33;71.69;97952.03;5040345;28;20046;-45
2022/05/05 07:59:40;;;;;;;16.70;11.07;;;13.30;99.90;;;13.47;71.41;97955.00;5039554;28;20053;-46
2022/05/05 08:02:14;;;;;;;13.90;11.80;;;13.50;99.90;;;13.41;70.52;97953.00;5049048;28;20047;-47
2022/05/05 08:04:48;;;;;;;13.45;10.90;;;13.40;99.90;;;13.35;69.74;97952.69;5047179;28;20061;-47
2022/05/05 08:07:20;;;;;;;14.13;10.98;;;13.30;99.90;;;13.49;69.80;97952.97;5032734;28;20049;-45
2022/05/05 08:09:51;;;;;;;11.68;10.48;;;13.50;99.90;;;13.53;69.51;97962.31;5051007;28;20055;-48
2022/05/05 08:12:37;;;;;;;14.02;9.82;;;13.50;99.90;;;13.70;69.24;97963.94;5042158;28;20054;-50
2022/05/05 08:15:07;;;;;;;13.13;11.20;;;13.80;99.90;;;13.63;68.49;97967.47;5043998;28;20048;-46
2022/05/05 08:17:35;;;;;;;15.93;13.57;;;13.70;99.90;;;13.57;68.65;97956.47;5051973;28;20048;-47
2022/05/05 08:20:06;;;;;;;16.90;12.68;;;13.60;99.90;;;13.77;68.88;97970.28;5050116;28;20049;-47
2022/05/05 08:22:34;;;;;;;13.35;11.32;;;13.80;99.90;;;13.86;68.76;97975.56;5067904;28;20374;-46
2022/05/05 08:30:42;;;;;;;15.80;12.38;;;14.00;99.90;;;14.01;68.49;97979.19;5035384;28;20057;-46
2022/05/05 08:33:15;;;;;;;21.23;14.00;;;14.10;99.90;;;13.64;67.09;97977.19;5034088;28;20239;-45
2022/05/05 08:36:02;;;;;;;16.63;12.88;;;13.70;99.90;;;13.67;67.40;97982.19;5035966;28;20037;-45
2022/05/05 08:38:38;;;;;;;15.43;13.90;;;13.60;99.90;;;13.66;67.84;97986.69;5032550;28;20049;-48
2022/05/05 08:41:14;;;;;;;16.30;13.73;;;13.60;99.90;;;13.66;68.38;97992.03;5036075;28;20063;-45
2022/05/05 08:43:45;;;;;;;16.20;12.73;;;13.60;99.90;;;13.67;68.46;97990.22;5017652;28;20059;-48
2022/05/05 08:46:33;;;;;;;18.55;15.30;;;13.60;99.90;;;13.56;68.56;97986.88;5038374;28;20402;-47
2022/05/05 08:49:12;;;;;;;14.52;12.88;;;13.50;99.90;;;13.49;68.66;97990.41;5038227;28;20383;-48
2022/05/05 08:51:55;;;;;;;16.13;14.10;;;13.50;99.90;;;13.53;69.26;97984.56;5023290;28;20041;-46
2022/05/05 08:54:40;;;;;;;15.73;13.32;;;13.50;99.90;;;13.51;69.21;97985.72;5038018;28;20340;-48
2022/05/05 08:57:17;;;;;;;17.23;14.45;;;13.40;99.90;;;13.47;69.31;97990.59;5037214;28;20056;-48
2022/05/05 08:59:54;;;;;;;16.42;14.73;;;13.40;99.90;;;13.55;69.13;97992.41;5039882;28;20087;-46
2022/05/05 09:03:00;;;;;;;16.15;14.23;;;13.50;99.90;;;13.58;69.01;98002.78;5024043;28;20063;-46
2022/05/05 09:05:50;;;;;;;15.68;13.98;;;13.50;99.90;;;13.62;68.98;98003.28;5037021;28;20079;-47
2022/05/05 09:08:35;;;;;;;15.45;13.85;;;13.60;99.90;;;13.71;68.90;98005.75;5034227;28;20045;-48
2022/05/05 09:11:24;;;;;;;15.18;13.52;;;13.70;99.90;;;13.81;68.94;98007.41;5036118;28;20057;-49
2022/05/05 09:14:12;;;;;;;14.93;13.32;;;13.80;99.90;;;13.90;68.71;98003.66;5040108;28;20048;-46
2022/05/05 09:17:02;;;;;;;17.45;14.75;;;13.90;99.90;;;13.97;68.65;98008.16;5042814;28;20049;-49
2022/05/05 09:19:42;;;;;;;17.20;15.10;;;13.90;99.90;;;13.94;68.39;98007.69;5026101;28;20049;-47
2022/05/05 09:22:25;;;;;;;23.80;16.70;;;13.80;99.90;;;13.99;68.44;98008.81;5050629;28;20060;-47
2022/05/05 09:25:09;;;;;;;18.17;15.98;;;13.90;99.90;;;14.04;68.05;98007.47;5012188;28;20053;-47
2022/05/05 09:27:44;;;;;;;20.23;16.90;;;13.90;99.90;;;13.98;67.72;98011.69;5042198;28;20056;-45
2022/05/05 09:30:16;;;;;;;18.50;15.38;;;13.80;99.90;;;14.04;67.49;98015.50;5041206;28;20069;-46
2022/05/05 09:32:50;;;;;;;17.80;15.80;;;13.90;99.90;;;14.06;67.13;98014.31;5040716;28;20051;-45
2022/05/05 09:35:26;;;;;;;18.38;15.27;;;14.00;99.90;;;13.96;67.15;98011.84;5041491;28;20233;-45
2022/05/05 09:38:07;;;;;;;17.50;15.30;;;13.90;99.90;;;13.91;66.98;98013.38;5039039;28;20057;-46
2022/05/05 09:40:39;;;;;;;21.42;15.90;;;13.90;99.90;;;13.73;67.26;98021.63;5038070;28;20251;-45
2022/05/05 09:43:28;;;;;;;18.98;16.10;;;13.60;99.90;;;13.69;67.32;98025.66;5040129;28;20386;-45
2022/05/05 09:46:48;;;;;;;23.60;16.85;;;13.60;99.90;;;13.81;67.53;98028.81;5040034;28;20615;-47
2022/05/05 09:49:35;;;;;;;17.85;14.43;;;13.80;99.90;;;13.93;67.79;98020.22;5034585;28;20065;-45
2022/05/05 09:58:26;;;;;;;19.17;15.18;;;14.20;99.90;;;14.25;66.71;98038.97;5039825;28;20061;-46
2022/05/05 10:01:09;;;;;;;21.85;15.00;;;14.30;99.90;;;14.13;66.51;98034.03;5038873;28;20062;-44
2022/05/05 10:04:05;;;;;;;19.73;15.57;;;14.10;99.90;;;14.12;66.49;98034.19;5041184;28;20045;-45
2022/05/05 10:06:54;;;;;;;18.25;15.95;;;14.00;99.90;;;14.09;66.77;98029.19;5038728;28;20057;-45
2022/05/05 10:09:32;;;;;;;21.58;15.25;;;14.00;99.90;;;14.02;66.88;98033.59;5041329;28;20037;-47
2022/05/05 10:12:07;;;;;;;200.82;69.30;;;13.90;99.90;;;14.15;66.87;98037.38;5038467;28;20049;-47
2022/05/05 10:14:43;;;;;;;23.60;17.30;;;14.10;99.90;;;14.09;66.98;98031.84;5039587;28;20065;-46
2022/05/05 10:17:16;;;;;;;21.17;17.80;;;14.00;99.90;;;14.05;67.10;98036.72;5023337;28;20052;-45
2022/05/05 10:19:52;;;;;;;27.55;19.60;;;13.90;99.90;;;14.10;66.79;98028.19;5024171;28;20057;-47
2022/05/05 10:22:50;;;;;;;26.35;20.08;;;14.00;99.90;;;13.94;66.90;98037.13;5041609;28;20401;-51
2022/05/05 10:25:51;;;;;;;23.58;18.33;;;13.90;99.90;;;13.92;67.36;98039.97;5025671;28;20065;-45
2022/05/05 10:28:47;;;;;;;25.45;19.55;;;13.80;99.90;;;13.98;67.17;98030.41;5039117;28;20052;-48
2022/05/05 10:31:42;;;;;;;25.20;19.33;;;13.90;99.90;;;14.06;67.19;98033.06;5040675;28;20374;-49
2022/05/05 10:34:23;;;;;;;27.73;18.75;;;14.00;99.90;;;14.11;67.11;98041.41;5040372;28;20400;-46
2022/05/05 10:37:05;;;;;;;24.13;19.00;;;14.00;99.90;;;14.07;67.28;98037.38;5039188;28;20053;-46
2022/05/05 10:39:48;;;;;;;24.50;18.83;;;13.90;99.90;;;14.09;67.21;98034.53;5037032;28;20340;-45
2022/05/05 10:42:20;;;;;;;23.77;19.17;;;14.00;99.90;;;13.96;66.92;98037.78;5038987;28;20055;-47
2022/05/05 10:45:09;;;;;;;24.43;17.07;;;13.90;99.90;;;13.95;66.93;98038.78;5041035;28;20059;-47
2022/05/05 10:47:52;;;;;;;25.27;19.00;;;13.80;99.90;;;13.87;67.04;98049.53;5039921;28;20054;-49
2022/05/05 10:50:29;;;;;;;29.40;21.30;;;13.80;99.90;;;13.67;67.64;98041.06;5039853;28;20046;-48
2022/05/05 10:52:59;;;;;;;26.65;19.77;;;13.50;99.90;;;13.67;68.23;98044.56;5040975;28;20049;-47
2022/05/05 10:55:34;;;;;;;31.05;22.55;;;13.40;99.90;;;13.63;68.54;98040.56;5039796;28;20049;-46
2022/05/05 10:59:02;;;;;;;29.35;22.23;;;13.40;99.90;;;13.71;68.34;98043.22;5038787;28;20061;-47
2022/05/05 11:01:53;;;;;;;25.65;18.98;;;13.50;99.90;;;13.72;68.12;98050.22;5039082;28;20331;-49